sensor_id;sensor_type;location;lat;lon;timestamp;pressure;altitude;pressure_sealevel;temperature;humidity
21633;BME280;48765;51.568;8.840;2022-11-15T00:00:46;97951.06;;;9.02;100.00
21633;BME280;48765;51.568;8.840;2022-11-15T00:03:13;97946.59;;;9.07;100.00
21633;BME280;48765;51.568;8.840;2022-11-15T00:05:40;97941.38;;;9.04;100.00
21633;BME280;48765;51.568;8.840;2022-11-15T00:08:07;97952.81;;;9.03;100.00
21633;BME280;48765;51.568;8.840;2022-11-15T00:10:34;97952.78;;;9.09;100.00
21633;BME280;48765;51.568;8.840;2022-11-15T00:13:03;97957.97;;;9.16;100.00
21633;BME280;48765;51.568;8.840;2022-11-15T00:15:30;97956.25;;;9.14;100.00
21633;BME280;48765;51.568;8.840;2022-11-15T00:17:58;97950.97;;;9.11;100.00
21633;BME280;48765;51.568;8.840;2022-11-15T00:20:25;97953.59;;;9.12;100.00
21633;BME280;48765;51.568;8.840;2022-11-15T00:22:52;97955.31;;;9.19;100.00
21633;BME280;48765;51.568;8.840;2022-11-15T00:25:19;97947.34;;;9.21;100.00
21633;BME280;48765;51.568;8.840;2022-11-15T00:27:45;97956.22;;;9.17;100.00
21633;BME280;48765;51.568;8.840;2022-11-15T00:30:12;97946.47;;;9.22;100.00
21633;BME280;48765;51.568;8.840;2022-11-15T00:32:39;97948.22;;;9.25;100.00
21633;BME280;48765;51.568;8.840;2022-11-15T00:35:08;97949.06;;;9.28;100.00
21633;BME280;48765;51.568;8.840;2022-11-15T00:37:35;97961.41;;;9.28;100.00
21633;BME280;48765;51.568;8.840;2022-11-15T00:40:01;97944.59;;;9.36;100.00
21633;BME280;48765;51.568;8.840;2022-11-15T00:42:28;97950.66;;;9.44;100.00
21633;BME280;48765;51.568;8.840;2022-11-15T00:44:55;97938.28;;;9.45;100.00
21633;BME280;48765;51.568;8.840;2022-11-15T00:47:22;97946.28;;;9.42;100.00
21633;BME280;48765;51.568;8.840;2022-11-15T00:49:49;97940.06;;;9.47;100.00
21633;BME280;48765;51.568;8.840;2022-11-15T00:52:17;97943.53;;;9.53;100.00
21633;BME280;48765;51.568;8.840;2022-11-15T00:54:44;97937.38;;;9.51;100.00
21633;BME280;48765;51.568;8.840;2022-11-15T00:57:11;97933.00;;;9.46;100.00
21633;BME280;48765;51.568;8.840;2022-11-15T00:59:38;97937.38;;;9.49;100.00
21633;BME280;48765;51.568;8.840;2022-11-15T01:02:05;97933.81;;;9.53;100.00
21633;BME280;48765;51.568;8.840;2022-11-15T01:04:32;97933.00;;;9.45;100.00
21633;BME280;48765;51.568;8.840;2022-11-15T01:06:58;97925.94;;;9.45;100.00
21633;BME280;48765;51.568;8.840;2022-11-15T01:09:27;97922.44;;;9.43;100.00
21633;BME280;48765;51.568;8.840;2022-11-15T01:17:59;97924.28;;;9.35;100.00
21633;BME280;48765;51.568;8.840;2022-11-15T01:20:26;97923.41;;;9.38;100.00
21633;BME280;48765;51.568;8.840;2022-11-15T01:22:53;97924.25;;;9.40;100.00
21633;BME280;48765;51.568;8.840;2022-11-15T01:25:21;97921.69;;;9.32;100.00
21633;BME280;48765;51.568;8.840;2022-11-15T01:27:48;97912.91;;;9.32;100.00
21633;BME280;48765;51.568;8.840;2022-11-15T01:30:15;97901.38;;;9.37;100.00
21633;BME280;48765;51.568;8.840;2022-11-15T01:32:42;97907.59;;;9.32;100.00
21633;BME280;48765;51.568;8.840;2022-11-15T01:35:09;97903.09;;;9.38;100.00
21633;BME280;48765;51.568;8.840;2022-11-15T01:37:36;97904.94;;;9.30;100.00
21633;BME280;48765;51.568;8.840;2022-11-15T01:40:03;97912.03;;;9.28;100.00
21633;BME280;48765;51.568;8.840;2022-11-15T01:42:31;97910.22;;;9.33;100.00
21633;BME280;48765;51.568;8.840;2022-11-15T01:44:58;97918.13;;;9.35;100.00
21633;BME280;48765;51.568;8.840;2022-11-15T01:47:25;97920.72;;;9.42;100.00
21633;BME280;48765;51.568;8.840;2022-11-15T01:49:55;97915.38;;;9.47;100.00
21633;BME280;48765;51.568;8.840;2022-11-15T01:52:25;97926.78;;;9.52;100.00
21633;BME280;48765;51.568;8.840;2022-11-15T01:54:53;97917.13;;;9.46;100.00
21633;BME280;48765;51.568;8.840;2022-11-15T01:57:21;97918.97;;;9.41;100.00
21633;BME280;48765;51.568;8.840;2022-11-15T01:59:50;97905.69;;;9.44;100.00
21633;BME280;48765;51.568;8.840;2022-11-15T02:02:17;97915.41;;;9.42;100.00
21633;BME280;48765;51.568;8.840;2022-11-15T02:04:45;97905.69;;;9.44;100.00
21633;BME280;48765;51.568;8.840;2022-11-15T02:07:13;97910.06;;;9.45;100.00
21633;BME280;48765;51.568;8.840;2022-11-15T02:09:41;97903.91;;;9.45;100.00
21633;BME280;48765;51.568;8.840;2022-11-15T02:12:08;97906.56;;;9.43;100.00
21633;BME280;48765;51.568;8.840;2022-11-15T02:14:37;97899.47;;;9.48;100.00
21633;BME280;48765;51.568;8.840;2022-11-15T02:17:08;97897.72;;;9.47;100.00
21633;BME280;48765;51.568;8.840;2022-11-15T02:19:44;97896.00;;;9.43;100.00
21633;BME280;48765;51.568;8.840;2022-11-15T02:22:21;97896.94;;;9.38;100.00
21633;BME280;48765;51.568;8.840;2022-11-15T02:25:04;97896.00;;;9.43;100.00
21633;BME280;48765;51.568;8.840;2022-11-15T02:30:21;97886.28;;;9.44;100.00
21633;BME280;48765;51.568;8.840;2022-11-15T02:32:48;97885.34;;;9.50;100.00
21633;BME280;48765;51.568;8.840;2022-11-15T02:35:19;97885.34;;;9.50;100.00
21633;BME280;48765;51.568;8.840;2022-11-15T02:37:51;97879.22;;;9.44;100.00
21633;BME280;48765;51.568;8.840;2022-11-15T02:40:23;97881.94;;;9.41;100.00
21633;BME280;48765;51.568;8.840;2022-11-15T02:42:54;97873.00;;;9.48;100.00
21633;BME280;48765;51.568;8.840;2022-11-15T02:45:41;97881.88;;;9.46;100.00
21633;BME280;48765;51.568;8.840;2022-11-15T02:48:11;97869.56;;;9.40;100.00
21633;BME280;48765;51.568;8.840;2022-11-15T02:50:38;97873.03;;;9.45;100.00
21633;BME280;48765;51.568;8.840;2022-11-15T02:53:05;97871.28;;;9.44;100.00
21633;BME280;48765;51.568;8.840;2022-11-15T02:55:34;97870.38;;;9.45;100.00
21633;BME280;48765;51.568;8.840;2022-11-15T02:58:05;97873.09;;;9.42;100.00
21633;BME280;48765;51.568;8.840;2022-11-15T03:00:38;97876.63;;;9.41;100.00
21633;BME280;48765;51.568;8.840;2022-11-15T03:05:55;97875.63;;;9.50;100.00
21633;BME280;48765;51.568;8.840;2022-11-15T03:08:26;97873.88;;;9.49;100.00
21633;BME280;48765;51.568;8.840;2022-11-15T03:10:57;97873.03;;;9.45;100.00
21633;BME280;48765;51.568;8.840;2022-11-15T03:13:30;97880.09;;;9.46;100.00
21633;BME280;48765;51.568;8.840;2022-11-15T03:16:02;97877.56;;;9.37;100.00
21633;BME280;48765;51.568;8.840;2022-11-15T03:18:31;97878.28;;;9.48;100.00
21633;BME280;48765;51.568;8.840;2022-11-15T03:21:00;97874.03;;;9.35;100.00
21633;BME280;48765;51.568;8.840;2022-11-15T03:23:28;97888.97;;;9.42;100.00
21633;BME280;48765;51.568;8.840;2022-11-15T03:25:56;97886.19;;;9.53;100.00
21633;BME280;48765;51.568;8.840;2022-11-15T03:31:07;97885.22;;;9.59;100.00
21633;BME280;48765;51.568;8.840;2022-11-15T03:33:49;97889.66;;;9.58;100.00
21633;BME280;48765;51.568;8.840;2022-11-15T03:36:18;97892.41;;;9.51;100.00
21633;BME280;48765;51.568;8.840;2022-11-15T03:38:46;97887.13;;;9.51;100.00
21633;BME280;48765;51.568;8.840;2022-11-15T03:41:22;97886.13;;;9.58;100.00
21633;BME280;48765;51.568;8.840;2022-11-15T03:43:52;97896.69;;;9.61;100.00
21633;BME280;48765;51.568;8.840;2022-11-15T03:46:23;97880.75;;;9.64;100.00
21633;BME280;48765;51.568;8.840;2022-11-15T03:48:52;97885.13;;;9.68;100.00
21633;BME280;48765;51.568;8.840;2022-11-15T03:51:21;97880.63;;;9.75;100.00
21633;BME280;48765;51.568;8.840;2022-11-15T03:53:48;97876.31;;;9.67;100.00
21633;BME280;48765;51.568;8.840;2022-11-15T03:56:15;97878.88;;;9.73;100.00
21633;BME280;48765;51.568;8.840;2022-11-15T03:58:42;97886.72;;;9.81;100.00
21633;BME280;48765;51.568;8.840;2022-11-15T04:01:08;97871.81;;;9.72;100.00
21633;BME280;48765;51.568;8.840;2022-11-15T04:03:35;97884.16;;;9.75;100.00
21633;BME280;48765;51.568;8.840;2022-11-15T04:06:02;97878.88;;;9.73;100.00
21633;BME280;48765;51.568;8.840;2022-11-15T04:08:30;97890.25;;;9.82;100.00
21633;BME280;48765;51.568;8.840;2022-11-15T04:10:57;97889.28;;;9.87;100.00
21633;BME280;48765;51.568;8.840;2022-11-15T04:13:24;97885.78;;;9.85;100.00
21633;BME280;48765;51.568;8.840;2022-11-15T04:15:51;97883.88;;;9.98;100.00
21633;BME280;48765;51.568;8.840;2022-11-15T04:18:18;97880.34;;;9.96;100.00
21633;BME280;48765;51.568;8.840;2022-11-15T04:20:44;97886.47;;;9.99;100.00
21633;BME280;48765;51.568;8.840;2022-11-15T04:23:28;97888.28;;;9.97;100.00
21633;BME280;48765;51.568;8.840;2022-11-15T04:26:29;97890.78;;;10.07;100.00
21633;BME280;48765;51.568;8.840;2022-11-15T04:28:55;97896.00;;;10.11;100.00
21633;BME280;48765;51.568;8.840;2022-11-15T04:31:39;97896.91;;;10.12;100.00
21633;BME280;48765;51.568;8.840;2022-11-15T04:34:06;97896.81;;;10.18;100.00
21633;BME280;48765;51.568;8.840;2022-11-15T04:36:33;97900.31;;;10.20;100.00
21633;BME280;48765;51.568;8.840;2022-11-15T04:39:17;97895.00;;;10.20;100.00
21633;BME280;48765;51.568;8.840;2022-11-15T04:41:45;97891.44;;;10.26;100.00
21633;BME280;48765;51.568;8.840;2022-11-15T04:44:12;97891.47;;;10.24;100.00
21633;BME280;48765;51.568;8.840;2022-11-15T04:46:39;97893.06;;;10.36;100.00
21633;BME280;48765;51.568;8.840;2022-11-15T04:49:06;97886.84;;;10.38;100.00
21633;BME280;48765;51.568;8.840;2022-11-15T04:51:33;97891.44;;;10.27;100.00
21633;BME280;48765;51.568;8.840;2022-11-15T04:54:00;97886.06;;;10.30;100.00
21633;BME280;48765;51.568;8.840;2022-11-15T04:56:26;97889.63;;;10.29;100.00
21633;BME280;48765;51.568;8.840;2022-11-15T04:58:54;97892.34;;;10.26;100.00
21633;BME280;48765;51.568;8.840;2022-11-15T05:01:21;97879.19;;;10.17;100.00
21633;BME280;48765;51.568;8.840;2022-11-15T05:03:48;97889.69;;;10.26;100.00
21633;BME280;48765;51.568;8.840;2022-11-15T05:06:32;97884.34;;;10.28;100.00
21633;BME280;48765;51.568;8.840;2022-11-15T05:08:59;97888.75;;;10.29;100.00
21633;BME280;48765;51.568;8.840;2022-11-15T05:11:25;97879.91;;;10.30;100.00
21633;BME280;48765;51.568;8.840;2022-11-15T05:13:54;97883.38;;;10.33;100.00
21633;BME280;48765;51.568;8.840;2022-11-15T05:16:21;97876.38;;;10.29;100.00
21633;BME280;48765;51.568;8.840;2022-11-15T05:18:50;97881.56;;;10.37;100.00
21633;BME280;48765;51.568;8.840;2022-11-15T05:21:17;97880.56;;;10.45;100.00
21633;BME280;48765;51.568;8.840;2022-11-15T05:23:44;97883.22;;;10.44;100.00
21633;BME280;48765;51.568;8.840;2022-11-15T05:26:10;97884.16;;;10.41;100.00
21633;BME280;48765;51.568;8.840;2022-11-15T05:28:37;97877.06;;;10.42;100.00
21633;BME280;48765;51.568;8.840;2022-11-15T05:31:07;97885.06;;;10.40;100.00
21633;BME280;48765;51.568;8.840;2022-11-15T05:33:34;97880.59;;;10.42;100.00
21633;BME280;48765;51.568;8.840;2022-11-15T05:36:02;97871.78;;;10.42;100.00
21633;BME280;48765;51.568;8.840;2022-11-15T05:38:31;97876.16;;;10.43;100.00
21633;BME280;48765;51.568;8.840;2022-11-15T05:40:58;97865.63;;;10.40;100.00
21633;BME280;48765;51.568;8.840;2022-11-15T05:43:26;97869.81;;;10.53;100.00
21633;BME280;48765;51.568;8.840;2022-11-15T05:45:53;97868.13;;;10.51;100.00
21633;BME280;48765;51.568;8.840;2022-11-15T05:48:22;97860.13;;;10.52;100.00
21633;BME280;48765;51.568;8.840;2022-11-15T05:50:48;97853.84;;;10.58;100.00
21633;BME280;48765;51.568;8.840;2022-11-15T05:53:16;97850.50;;;10.46;100.00
21633;BME280;48765;51.568;8.840;2022-11-15T05:55:44;97851.34;;;10.48;100.00
21633;BME280;48765;51.568;8.840;2022-11-15T05:58:11;97858.28;;;10.57;100.00
21633;BME280;48765;51.568;8.840;2022-11-15T06:00:38;97854.88;;;10.49;100.00
21633;BME280;48765;51.568;8.840;2022-11-15T06:03:05;97856.56;;;10.55;100.00
21633;BME280;48765;51.568;8.840;2022-11-15T06:05:33;97852.06;;;10.60;100.00
21633;BME280;48765;51.568;8.840;2022-11-15T06:08:00;97865.44;;;10.52;100.00
21633;BME280;48765;51.568;8.840;2022-11-15T06:10:27;97852.06;;;10.60;100.00
21633;BME280;48765;51.568;8.840;2022-11-15T06:12:57;97858.13;;;10.66;100.00
21633;BME280;48765;51.568;8.840;2022-11-15T06:15:24;97849.25;;;10.67;100.00
21633;BME280;48765;51.568;8.840;2022-11-15T06:17:51;97849.25;;;10.69;100.00
21633;BME280;48765;51.568;8.840;2022-11-15T06:20:22;97853.91;;;10.55;100.00
21633;BME280;48765;51.568;8.840;2022-11-15T06:22:50;97843.25;;;10.58;100.00
21633;BME280;48765;51.568;8.840;2022-11-15T06:25:17;97841.50;;;10.57;100.00
21633;BME280;48765;51.568;8.840;2022-11-15T06:27:44;97839.59;;;10.65;100.00
21633;BME280;48765;51.568;8.840;2022-11-15T06:30:17;97848.69;;;10.48;100.00
21633;BME280;48765;51.568;8.840;2022-11-15T06:32:44;97847.81;;;10.48;100.00
21633;BME280;48765;51.568;8.840;2022-11-15T06:35:10;97848.75;;;10.45;100.00
21633;BME280;48765;51.568;8.840;2022-11-15T06:37:37;97846.13;;;10.45;100.00
21633;BME280;48765;51.568;8.840;2022-11-15T06:40:06;97850.53;;;10.43;100.00
21633;BME280;48765;51.568;8.840;2022-11-15T06:42:34;97841.66;;;10.47;100.00
21633;BME280;48765;51.568;8.840;2022-11-15T06:45:00;97840.06;;;10.37;100.00
21633;BME280;48765;51.568;8.840;2022-11-15T06:47:27;97844.44;;;10.38;100.00
21633;BME280;48765;51.568;8.840;2022-11-15T06:49:54;97840.09;;;10.34;100.00
21633;BME280;48765;51.568;8.840;2022-11-15T06:52:21;97845.31;;;10.40;100.00
21633;BME280;48765;51.568;8.840;2022-11-15T06:54:48;97843.56;;;10.38;100.00
21633;BME280;48765;51.568;8.840;2022-11-15T06:57:16;97844.50;;;10.34;100.00
21633;BME280;48765;51.568;8.840;2022-11-15T06:59:43;97841.75;;;10.41;100.00
21633;BME280;48765;51.568;8.840;2022-11-15T07:02:11;97853.25;;;10.40;100.00
21633;BME280;48765;51.568;8.840;2022-11-15T07:04:38;97850.91;;;10.19;100.00
21633;BME280;48765;51.568;8.840;2022-11-15T07:07:05;97852.59;;;10.24;100.00
21633;BME280;48765;51.568;8.840;2022-11-15T07:09:32;97854.75;;;9.98;100.00
21633;BME280;48765;51.568;8.840;2022-11-15T07:11:59;97855.47;;;10.08;100.00
21633;BME280;48765;51.568;8.840;2022-11-15T07:14:27;97860.91;;;9.97;100.00
21633;BME280;48765;51.568;8.840;2022-11-15T07:16:56;97854.72;;;9.99;100.00
21633;BME280;48765;51.568;8.840;2022-11-15T07:19:23;97868.88;;;9.95;100.00
21633;BME280;48765;51.568;8.840;2022-11-15T07:21:50;97858.16;;;10.05;100.00
21633;BME280;48765;51.568;8.840;2022-11-15T07:24:17;97871.56;;;9.94;100.00
21633;BME280;48765;51.568;8.840;2022-11-15T07:26:44;97864.28;;;10.07;100.00
21633;BME280;48765;51.568;8.840;2022-11-15T07:29:12;97857.28;;;10.04;100.00
21633;BME280;48765;51.568;8.840;2022-11-15T07:31:40;97865.41;;;9.90;100.00
21633;BME280;48765;51.568;8.840;2022-11-15T07:34:07;97859.97;;;10.03;100.00
21633;BME280;48765;51.568;8.840;2022-11-15T07:36:35;97870.56;;;10.03;100.00
21633;BME280;48765;51.568;8.840;2022-11-15T07:39:02;97881.06;;;10.09;100.00
21633;BME280;48765;51.568;8.840;2022-11-15T07:41:29;97868.59;;;10.17;100.00
21633;BME280;48765;51.568;8.840;2022-11-15T07:43:55;97866.72;;;10.25;100.00
21633;BME280;48765;51.568;8.840;2022-11-15T07:46:22;97882.56;;;10.28;100.00
21633;BME280;48765;51.568;8.840;2022-11-15T07:48:51;97869.28;;;10.31;100.00
21633;BME280;48765;51.568;8.840;2022-11-15T07:51:17;97878.88;;;10.38;100.00
21633;BME280;48765;51.568;8.840;2022-11-15T07:53:44;97880.63;;;10.39;100.00
21633;BME280;48765;51.568;8.840;2022-11-15T07:56:11;97885.00;;;10.45;100.00
21633;BME280;48765;51.568;8.840;2022-11-15T07:58:38;97882.41;;;10.40;100.00
21633;BME280;48765;51.568;8.840;2022-11-15T08:01:05;97879.63;;;10.49;100.00
21633;BME280;48765;51.568;8.840;2022-11-15T08:03:33;97874.38;;;10.43;100.00
21633;BME280;48765;51.568;8.840;2022-11-15T08:06:01;97877.78;;;10.53;100.00
21633;BME280;48765;51.568;8.840;2022-11-15T08:08:28;97877.63;;;10.64;100.00
21633;BME280;48765;51.568;8.840;2022-11-15T08:10:56;97875.00;;;10.61;100.00
21633;BME280;48765;51.568;8.840;2022-11-15T08:13:23;97876.75;;;10.62;100.00
21633;BME280;48765;51.568;8.840;2022-11-15T08:15:50;97874.09;;;10.63;100.00
21633;BME280;48765;51.568;8.840;2022-11-15T08:18:17;97872.38;;;10.61;100.00
21633;BME280;48765;51.568;8.840;2022-11-15T08:20:44;97875.72;;;10.70;100.00
21633;BME280;48765;51.568;8.840;2022-11-15T08:23:12;97871.34;;;10.68;100.00
21633;BME280;48765;51.568;8.840;2022-11-15T08:25:39;97870.56;;;10.61;100.00
21633;BME280;48765;51.568;8.840;2022-11-15T08:28:06;97867.75;;;10.72;100.00
21633;BME280;48765;51.568;8.840;2022-11-15T08:30:35;97866.72;;;10.81;100.00
21633;BME280;48765;51.568;8.840;2022-11-15T08:33:02;97869.28;;;10.85;100.00
21633;BME280;48765;51.568;8.840;2022-11-15T08:35:30;97864.78;;;10.92;100.00
21633;BME280;48765;51.568;8.840;2022-11-15T08:37:57;97872.75;;;10.90;100.00
21633;BME280;48765;51.568;8.840;2022-11-15T08:40:26;97872.63;;;10.98;100.00
21633;BME280;48765;51.568;8.840;2022-11-15T08:42:52;97871.66;;;11.02;100.00
21633;BME280;48765;51.568;8.840;2022-11-15T08:45:20;97879.69;;;10.97;100.00
21633;BME280;48765;51.568;8.840;2022-11-15T08:47:47;97874.28;;;11.04;100.00
21633;BME280;48765;51.568;8.840;2022-11-15T08:50:14;97876.50;;;11.26;100.00
21633;BME280;48765;51.568;8.840;2022-11-15T08:52:41;97878.41;;;11.20;100.00
21633;BME280;48765;51.568;8.840;2022-11-15T08:55:08;97875.66;;;11.26;100.00
21633;BME280;48765;51.568;8.840;2022-11-15T08:57:36;97861.25;;;11.39;100.00
21633;BME280;48765;51.568;8.840;2022-11-15T09:00:03;97861.84;;;11.52;100.00
21633;BME280;48765;51.568;8.840;2022-11-15T09:02:30;97868.03;;;11.52;100.00
21633;BME280;48765;51.568;8.840;2022-11-15T09:04:57;97870.59;;;11.59;100.00
21633;BME280;48765;51.568;8.840;2022-11-15T09:07:24;97874.06;;;11.62;100.00
21633;BME280;48765;51.568;8.840;2022-11-15T09:09:50;97862.63;;;11.59;100.00
21633;BME280;48765;51.568;8.840;2022-11-15T09:12:17;97859.06;;;11.60;100.00
21633;BME280;48765;51.568;8.840;2022-11-15T09:14:45;97864.19;;;11.69;100.00
21633;BME280;48765;51.568;8.840;2022-11-15T09:17:12;97858.88;;;11.69;100.00
21633;BME280;48765;51.568;8.840;2022-11-15T09:19:39;97862.09;;;11.85;100.00
21633;BME280;48765;51.568;8.840;2022-11-15T09:22:06;97863.94;;;11.80;100.00
21633;BME280;48765;51.568;8.840;2022-11-15T09:24:33;97860.25;;;11.88;100.00
21633;BME280;48765;51.568;8.840;2022-11-15T09:27:00;97859.22;;;11.95;100.00
21633;BME280;48765;51.568;8.840;2022-11-15T09:29:28;97867.06;;;12.01;100.00
21633;BME280;48765;51.568;8.840;2022-11-15T09:31:56;97858.13;;;12.06;100.00
21633;BME280;48765;51.568;8.840;2022-11-15T09:34:23;97847.56;;;12.02;100.00
21633;BME280;48765;51.568;8.840;2022-11-15T09:36:50;97856.16;;;12.14;100.00
21633;BME280;48765;51.568;8.840;2022-11-15T09:39:17;97855.16;;;12.18;100.00
21633;BME280;48765;51.568;8.840;2022-11-15T09:41:52;97851.63;;;12.19;100.00
21633;BME280;48765;51.568;8.840;2022-11-15T09:44:27;97850.41;;;12.32;100.00
21633;BME280;48765;51.568;8.840;2022-11-15T09:46:59;97851.97;;;12.42;100.00
21633;BME280;48765;51.568;8.840;2022-11-15T09:49:31;97853.63;;;12.46;100.00
21633;BME280;48765;51.568;8.840;2022-11-15T09:51:58;97856.16;;;12.52;100.00
21633;BME280;48765;51.568;8.840;2022-11-15T09:54:26;97849.91;;;12.53;100.00
21633;BME280;48765;51.568;8.840;2022-11-15T09:56:55;97855.28;;;12.50;100.00
21633;BME280;48765;51.568;8.840;2022-11-15T09:59:27;97849.97;;;12.50;100.00
21633;BME280;48765;51.568;8.840;2022-11-15T10:01:59;97846.19;;;12.61;100.00
21633;BME280;48765;51.568;8.840;2022-11-15T10:04:27;97844.31;;;12.66;100.00
21633;BME280;48765;51.568;8.840;2022-11-15T10:06:58;97843.97;;;12.78;100.00
21633;BME280;48765;51.568;8.840;2022-11-15T10:09:27;97834.38;;;12.72;100.00
21633;BME280;48765;51.568;8.840;2022-11-15T10:11:56;97836.75;;;12.83;100.00
21633;BME280;48765;51.568;8.840;2022-11-15T10:14:24;97833.16;;;12.86;100.00
21633;BME280;48765;51.568;8.840;2022-11-15T10:17:04;97822.63;;;12.81;100.00
21633;BME280;48765;51.568;8.840;2022-11-15T10:19:35;97816.91;;;12.96;100.00
21633;BME280;48765;51.568;8.840;2022-11-15T10:22:11;97823.09;;;12.97;100.00
21633;BME280;48765;51.568;8.840;2022-11-15T10:24:44;97824.22;;;12.88;100.00
21633;BME280;48765;51.568;8.840;2022-11-15T10:27:14;97812.47;;;12.97;100.00
21633;BME280;48765;51.568;8.840;2022-11-15T10:29:43;97817.59;;;13.04;100.00
21633;BME280;48765;51.568;8.840;2022-11-15T10:32:13;97800.50;;;13.13;100.00
21633;BME280;48765;51.568;8.840;2022-11-15T10:34:40;97807.47;;;13.17;100.00
21633;BME280;48765;51.568;8.840;2022-11-15T10:37:07;97798.31;;;13.29;100.00
21633;BME280;48765;51.568;8.840;2022-11-15T10:39:34;97792.00;;;13.33;100.00
21633;BME280;48765;51.568;8.840;2022-11-15T10:42:14;97793.72;;;13.34;100.00
21633;BME280;48765;51.568;8.840;2022-11-15T10:44:44;97791.75;;;13.41;100.00
21633;BME280;48765;51.568;8.840;2022-11-15T10:47:25;97793.28;;;13.49;100.00
21633;BME280;48765;51.568;8.840;2022-11-15T10:50:01;97784.81;;;13.35;100.00
21633;BME280;48765;51.568;8.840;2022-11-15T10:52:32;97787.22;;;13.44;100.00
21633;BME280;48765;51.568;8.840;2022-11-15T10:55:02;97789.34;;;13.33;100.00
21633;BME280;48765;51.568;8.840;2022-11-15T10:57:31;97782.75;;;13.46;100.00
21633;BME280;48765;51.568;8.840;2022-11-15T10:59:59;97776.31;;;13.53;100.00
21633;BME280;48765;51.568;8.840;2022-11-15T11:02:29;97769.25;;;13.52;100.00
21633;BME280;48765;51.568;8.840;2022-11-15T11:04:57;97772.56;;;13.61;100.00
21633;BME280;48765;51.568;8.840;2022-11-15T11:07:25;97775.34;;;13.56;100.00
21633;BME280;48765;51.568;8.840;2022-11-15T11:10:00;97776.50;;;13.47;100.00
21633;BME280;48765;51.568;8.840;2022-11-15T11:12:27;97774.91;;;13.40;100.00
21633;BME280;48765;51.568;8.840;2022-11-15T11:14:55;97792.25;;;13.55;100.00
21633;BME280;48765;51.568;8.840;2022-11-15T11:17:23;97778.03;;;13.54;100.00
21633;BME280;48765;51.568;8.840;2022-11-15T11:19:58;97780.09;;;13.46;100.00
21633;BME280;48765;51.568;8.840;2022-11-15T11:22:29;97767.78;;;13.42;100.00
21633;BME280;48765;51.568;8.840;2022-11-15T11:25:04;97761.28;;;13.20;100.00
21633;BME280;48765;51.568;8.840;2022-11-15T11:27:36;97763.63;;;13.32;100.00
21633;BME280;48765;51.568;8.840;2022-11-15T11:30:09;97764.41;;;13.36;100.00
21633;BME280;48765;51.568;8.840;2022-11-15T11:35:20;97754.13;;;13.22;100.00
21633;BME280;48765;51.568;8.840;2022-11-15T11:37:49;97736.63;;;13.46;100.00
21633;BME280;48765;51.568;8.840;2022-11-15T11:40:20;97742.81;;;13.46;100.00
21633;BME280;48765;51.568;8.840;2022-11-15T11:42:53;97740.00;;;13.51;100.00
21633;BME280;48765;51.568;8.840;2022-11-15T11:45:27;97737.03;;;13.32;100.00
21633;BME280;48765;51.568;8.840;2022-11-15T11:48:00;97737.63;;;13.40;100.00
21633;BME280;48765;51.568;8.840;2022-11-15T11:50:32;97725.25;;;13.39;100.00
21633;BME280;48765;51.568;8.840;2022-11-15T11:53:01;97722.47;;;13.44;100.00
21633;BME280;48765;51.568;8.840;2022-11-15T11:55:31;97715.00;;;13.27;100.00
21633;BME280;48765;51.568;8.840;2022-11-15T11:58:04;97710.53;;;13.27;100.00
21633;BME280;48765;51.568;8.840;2022-11-15T12:00:33;97698.34;;;13.17;100.00
21633;BME280;48765;51.568;8.840;2022-11-15T12:03:07;97698.13;;;12.95;100.00
21633;BME280;48765;51.568;8.840;2022-11-15T12:05:38;97688.88;;;13.09;100.00
21633;BME280;48765;51.568;8.840;2022-11-15T12:08:12;97673.19;;;12.99;100.00
21633;BME280;48765;51.568;8.840;2022-11-15T12:10:41;97666.66;;;13.10;100.00
21633;BME280;48765;51.568;8.840;2022-11-15T12:13:13;97666.09;;;12.98;100.00
21633;BME280;48765;51.568;8.840;2022-11-15T12:15:45;97666.19;;;12.95;100.00
21633;BME280;48765;51.568;8.840;2022-11-15T12:18:14;97662.53;;;12.99;100.00
21633;BME280;48765;51.568;8.840;2022-11-15T12:20:48;97657.22;;;12.99;100.00
21633;BME280;48765;51.568;8.840;2022-11-15T12:23:18;97658.94;;;13.00;100.00
21633;BME280;48765;51.568;8.840;2022-11-15T12:25:48;97661.94;;;12.90;100.00
21633;BME280;48765;51.568;8.840;2022-11-15T12:28:17;97661.94;;;12.90;100.00
21633;BME280;48765;51.568;8.840;2022-11-15T12:30:48;97661.22;;;12.83;100.00
21633;BME280;48765;51.568;8.840;2022-11-15T12:33:30;97663.06;;;12.81;100.00
21633;BME280;48765;51.568;8.840;2022-11-15T12:36:01;97664.47;;;12.94;100.00
21633;BME280;48765;51.568;8.840;2022-11-15T12:41:14;97658.28;;;12.94;100.00
21633;BME280;48765;51.568;8.840;2022-11-15T12:43:42;97657.28;;;12.96;100.00
21633;BME280;48765;51.568;8.840;2022-11-15T12:46:11;97656.09;;;13.07;100.00
21633;BME280;48765;51.568;8.840;2022-11-15T12:56:59;97646.78;;;13.21;100.00
21633;BME280;48765;51.568;8.840;2022-11-15T12:59:47;97646.66;;;13.27;100.00
21633;BME280;48765;51.568;8.840;2022-11-15T13:02:17;97636.13;;;13.21;100.00
21633;BME280;48765;51.568;8.840;2022-11-15T13:04:44;97638.81;;;13.23;100.00
21633;BME280;48765;51.568;8.840;2022-11-15T13:07:42;97640.47;;;13.27;100.00
21633;BME280;48765;51.568;8.840;2022-11-15T13:09:58;97633.38;;;13.26;100.00
21633;BME280;48765;51.568;8.840;2022-11-15T13:17:54;97640.47;;;13.27;99.94
21633;BME280;48765;51.568;8.840;2022-11-15T13:20:23;97638.69;;;13.26;100.00
21633;BME280;48765;51.568;8.840;2022-11-15T13:22:50;97642.44;;;13.19;100.00
21633;BME280;48765;51.568;8.840;2022-11-15T13:28:03;97642.38;;;13.20;99.47
21633;BME280;48765;51.568;8.840;2022-11-15T13:30:36;97637.13;;;13.19;97.27
21633;BME280;48765;51.568;8.840;2022-11-15T13:33:07;97633.81;;;13.11;97.27
21633;BME280;48765;51.568;8.840;2022-11-15T13:35:36;97620.56;;;13.09;97.34
21633;BME280;48765;51.568;8.840;2022-11-15T13:38:05;97629.91;;;13.24;95.92